Time;durP1;ratioP1;P1;durP2;ratioP2;P2;SDS_P1;SDS_P2;PMS_P1;PMS_P2;Temp;Humidity;BMP_temperature;BMP_pressure;BME280_temperature;BME280_humidity;BME280_pressure;Samples;Min_cycle;Max_cycle;Signal;HPM_P1;HPM_P2
2022/02/09 00:03:57;;;;;;;9.88;6.13;;;;;;;7.91;100.00;98806.97;4906520;29;20112;-82
2022/02/09 00:09:00;;;;;;;;;;;;;;;7.96;100.00;98809.66;4906395;29;20052;-81
2022/02/09 00:11:31;;;;;;;9.40;6.68;;;;;;;7.79;100.00;98801.03;4900793;29;19948;-84
2022/02/09 00:14:06;;;;;;;13.15;6.97;;;;;;;7.84;100.00;98802.91;4885480;29;20080;-83
2022/02/09 00:19:28;;;;;;;16.02;8.52;;;;;;;7.84;100.00;98803.72;4902195;29;20549;-81
2022/02/09 00:25:08;;;;;;;12.55;8.75;;;;;;;7.73;100.00;98806.66;4884601;29;20076;-82
2022/02/09 00:33:24;;;;;;;12.55;8.40;;;;;;;7.75;100.00;98818.00;4899040;29;20053;-83
2022/02/09 01:57:10;;;;;;;15.20;8.70;;;;;;;8.32;100.00;98802.41;4901588;29;20061;-82
2022/02/09 01:59:37;;;;;;;12.52;8.32;;;;;;;8.32;100.00;98802.41;4899939;29;20506;-82
2022/02/09 02:02:08;;;;;;;13.95;8.75;;;;;;;8.32;100.00;98797.00;4881364;29;20116;-83
2022/02/09 02:04:34;;;;;;;12.20;7.93;;;;;;;8.26;100.00;98808.06;4884183;29;20060;-83
2022/02/09 02:07:06;;;;;;;13.57;7.85;;;;;;;8.35;100.00;98799.16;4881155;29;20474;-83
2022/02/09 02:09:36;;;;;;;11.80;7.70;;;;;;;8.35;100.00;98803.75;4899543;29;20052;-83
2022/02/09 02:12:14;;;;;;;11.57;7.70;;;;;;;8.42;100.00;98794.28;4899662;29;20053;-83
2022/02/09 02:14:46;;;;;;;12.30;8.07;;;;;;;8.42;100.00;98794.28;4897970;29;20056;-83
2022/02/09 02:17:24;;;;;;;11.70;7.60;;;;;;;8.39;100.00;98797.53;4895755;29;20474;-82
2022/02/09 02:19:57;;;;;;;10.90;7.60;;;;;;;8.53;100.00;98805.88;4897871;29;20108;-82
2022/02/09 02:42:21;;;;;;;10.77;6.82;;;;;;;8.49;100.00;98778.63;4859237;29;20065;-83
2022/02/09 03:08:35;;;;;;;8.32;5.68;;;;;;;8.60;100.00;98752.41;4897349;29;20057;-82
2022/02/09 03:13:36;;;;;;;9.27;5.65;;;;;;;8.60;100.00;98728.13;4898175;29;20053;-83
2022/02/09 03:16:10;;;;;;;7.65;5.22;;;;;;;8.40;100.00;98715.50;4898789;29;20056;-83
2022/02/09 03:19:13;;;;;;;10.20;5.53;;;;;;;8.62;100.00;98740.25;4906478;29;20056;-83
2022/02/09 03:24:22;;;;;;;6.60;4.50;;;;;;;8.68;100.00;98733.78;4901147;29;20493;-83
2022/02/09 03:56:41;;;;;;;5.45;3.45;;;;;;;8.65;100.00;98715.44;4899021;29;20056;-83
2022/02/09 03:59:08;;;;;;;5.57;3.63;;;;;;;8.67;100.00;98726.75;4898694;29;20060;-83
2022/02/09 04:01:38;;;;;;;6.95;3.90;;;;;;;8.76;100.00;98729.69;4897575;29;20546;-83
2022/02/09 04:04:08;;;;;;;6.10;3.60;;;;;;;8.70;100.00;98731.59;4881145;29;20119;-84
2022/02/09 04:06:36;;;;;;;5.35;3.60;;;;;;;8.77;100.00;98753.69;4898164;29;20108;-83
2022/02/09 04:09:07;;;;;;;8.70;4.00;;;;;;;8.89;100.00;98758.00;4896971;29;20589;-83
2022/02/09 04:14:21;;;;;;;6.68;4.13;;;;;;;9.06;100.00;98759.25;4896249;29;20116;-82
2022/02/09 04:41:23;;;;;;;;;;;;;;;;;;;;;
2022/02/09 04:49:32;;;;;;;2.90;2.40;;;;;;;8.99;100.00;98736.34;4897697;29;20135;-83
2022/02/09 04:54:36;;;;;;;;;;;;;;;;;;;;;
2022/02/09 04:57:12;;;;;;;4.70;3.42;;;;;;;8.97;100.00;98728.53;4896497;29;20072;-83
2022/02/09 05:26:19;;;;;;;3.22;2.33;;;;;;;9.12;100.00;98717.63;4891832;29;20112;-82
2022/02/09 05:28:46;;;;;;;3.15;2.17;;;;;;;9.15;100.00;98718.97;4888116;29;20241;-82
2022/02/09 05:31:12;;;;;;;3.38;2.38;;;;;;;9.18;100.00;98727.34;4875577;29;20139;-83
2022/02/09 05:33:42;;;;;;;3.58;2.60;;;;;;;9.05;100.00;98729.84;4892491;29;20447;-85
2022/02/09 05:36:08;;;;;;;3.42;2.20;;;;;;;9.08;100.00;98729.28;4878567;29;20064;-82
2022/02/09 05:38:35;;;;;;;2.58;2.00;;;;;;;8.89;100.00;98723.69;4879598;29;20131;-81
2022/02/09 05:41:01;;;;;;;1.98;1.67;;;;;;;9.10;100.00;98740.63;4896941;29;20056;-83
2022/02/09 05:43:28;;;;;;;2.53;1.80;;;;;;;9.04;100.00;98722.81;4896694;29;20045;-83
2022/02/09 05:46:21;;;;;;;2.90;1.90;;;;;;;9.08;100.00;98715.78;4894254;29;20081;-84
2022/02/09 05:51:38;;;;;;;4.65;3.17;;;;;;;9.06;100.00;98728.75;4895193;29;20199;-83
2022/02/09 05:54:23;;;;;;;4.53;3.40;;;;;;;8.93;100.00;98721.25;4879109;29;20455;-84
2022/02/09 05:57:11;;;;;;;4.00;3.17;;;;;;;8.98;100.00;98716.63;4895337;29;20056;-84
2022/02/09 05:59:36;;;;;;;7.60;3.40;;;;;;;8.86;100.00;98702.66;4898482;29;20473;-83
2022/02/09 06:02:03;;;;;;;6.40;3.55;;;;;;;8.92;100.00;98711.53;4878280;29;20443;-83
2022/02/09 06:04:29;;;;;;;4.55;3.30;;;;;;;8.81;100.00;98716.16;4897976;29;20045;-83
2022/02/09 06:06:58;;;;;;;6.47;3.45;;;;;;;9.06;100.00;98720.66;4898234;29;20135;-82
2022/02/09 06:09:25;;;;;;;5.20;3.40;;;;;;;8.98;100.00;98722.03;4881229;29;20108;-83
2022/02/09 06:12:17;;;;;;;5.03;3.20;;;;;;;8.87;100.00;98696.16;4889247;29;20072;-84
2022/02/09 06:20:06;;;;;;;5.53;3.75;;;;;;;9.01;100.00;98705.25;4899324;29;20064;-84
2022/02/09 06:22:33;;;;;;;5.10;3.83;;;;;;;9.00;100.00;98706.38;4882092;29;20056;-83
2022/02/09 06:25:00;;;;;;;6.75;3.80;;;;;;;8.83;100.00;98691.59;4881788;29;20071;-83
2022/02/09 06:27:27;;;;;;;4.70;3.80;;;;;;;8.94;100.00;98698.56;4881647;29;20088;-84
2022/02/09 06:29:53;;;;;;;3.63;3.13;;;;;;;8.93;100.00;98696.97;4877644;29;20056;-84
2022/02/09 06:32:20;;;;;;;5.05;3.50;;;;;;;8.82;100.00;98689.97;4893162;29;20049;-77
2022/02/09 06:34:48;;;;;;;3.72;2.95;;;;;;;8.90;100.00;98701.03;4890134;29;20132;-79
2022/02/09 06:39:49;;;;;;;5.43;3.15;;;;;;;8.89;100.00;98685.06;4896005;29;20056;-82
2022/02/09 06:42:22;;;;;;;4.40;3.22;;;;;;;8.88;100.00;98697.78;4896140;29;20502;-83
2022/02/09 06:44:54;;;;;;;5.25;2.83;;;;;;;8.76;100.00;98700.00;4879704;29;20056;-82
2022/02/09 06:47:25;;;;;;;4.10;2.25;;;;;;;8.64;100.00;98697.63;4899226;29;20116;-81
2022/02/09 06:50:05;;;;;;;5.28;3.22;;;;;;;8.75;100.00;98714.56;4896349;29;20064;-82
2022/02/09 06:52:32;;;;;;;3.97;3.10;;;;;;;8.68;100.00;98689.78;4897284;29;20414;-84
2022/02/09 06:55:11;;;;;;;4.30;3.58;;;;;;;8.84;100.00;98694.03;4896417;29;20453;-82
2022/02/09 07:00:18;;;;;;;5.72;3.63;;;;;;;8.97;100.00;98695.31;4902331;29;20128;-83
2022/02/09 07:02:45;;;;;;;7.18;3.72;;;;;;;8.94;100.00;98691.25;4897248;29;20104;-83
2022/02/09 07:05:13;;;;;;;5.45;3.50;;;;;;;8.82;100.00;98704.28;4880367;29;20135;-84
2022/02/09 07:07:41;;;;;;;6.30;4.03;;;;;;;8.88;100.00;98699.69;4897632;29;20111;-83
2022/02/09 07:10:10;;;;;;;5.70;3.40;;;;;;;8.91;100.00;98705.31;4897264;29;20465;-82
2022/02/09 07:12:39;;;;;;;4.63;3.20;;;;;;;8.93;100.00;98686.16;4896780;29;20065;-83
2022/02/09 07:15:14;;;;;;;4.20;3.03;;;;;;;8.91;100.00;98691.00;4897498;29;20195;-81
2022/02/09 07:17:43;;;;;;;3.75;2.67;;;;;;;9.03;100.00;98691.50;4895230;29;20387;-82
2022/02/09 07:20:19;;;;;;;4.53;3.08;;;;;;;8.72;100.00;98674.66;4896781;29;20060;-84
2022/02/09 07:22:48;;;;;;;4.32;3.00;;;;;;;8.93;100.00;98702.34;4897258;29;20059;-84
2022/02/09 07:25:18;;;;;;;6.00;3.00;;;;;;;8.95;100.00;98692.09;4895136;29;20116;-83
2022/02/09 07:27:52;;;;;;;4.13;3.28;;;;;;;8.89;100.00;98707.50;4893128;29;20060;-85
2022/02/09 07:30:22;;;;;;;4.25;3.30;;;;;;;9.05;100.00;98689.31;4895231;29;20071;-82
2022/02/09 07:32:53;;;;;;;4.25;3.10;;;;;;;8.84;100.00;98675.13;4878856;29;20060;-83
2022/02/09 07:35:23;;;;;;;6.72;3.60;;;;;;;8.92;100.00;98684.53;4900139;29;20053;-83
2022/02/09 07:37:50;;;;;;;4.72;3.40;;;;;;;8.98;100.00;98696.94;4880692;29;20057;-82
2022/02/09 07:40:18;;;;;;;4.30;3.50;;;;;;;8.83;100.00;98688.91;4896986;29;20112;-82
2022/02/09 07:42:52;;;;;;;4.20;3.20;;;;;;;8.92;100.00;98708.84;4898510;29;20303;-83
2022/02/09 07:51:00;;;;;;;4.47;3.00;;;;;;;8.95;100.00;98694.78;4913346;29;20096;-84
2022/02/09 07:53:37;;;;;;;4.75;3.30;;;;;;;8.84;100.00;98704.00;4910459;29;20044;-85
2022/02/09 07:56:03;;;;;;;4.50;2.97;;;;;;;8.92;100.00;98704.25;4902027;29;20127;-83
2022/02/09 07:58:30;;;;;;;4.07;3.08;;;;;;;8.78;100.00;98712.13;4884540;29;20077;-82
2022/02/09 08:00:56;;;;;;;4.57;3.17;;;;;;;8.76;100.00;98681.09;4882747;29;20116;-83
2022/02/09 08:03:23;;;;;;;3.78;2.72;;;;;;;8.93;100.00;98703.16;4881818;29;20049;-83
2022/02/09 08:05:49;;;;;;;4.47;3.20;;;;;;;8.89;100.00;98703.97;4883387;29;20180;-85
2022/02/09 08:08:16;;;;;;;5.63;3.05;;;;;;;8.93;100.00;98705.06;4900314;29;20053;-83
2022/02/09 08:10:48;;;;;;;3.83;3.08;;;;;;;8.94;100.00;98706.66;4881570;29;20056;-84
2022/02/09 08:24:18;;;;;;;7.88;3.50;;;;;;;8.98;100.00;98702.34;4903227;29;20426;-82
2022/02/09 08:27:18;;;;;;;6.85;3.30;;;;;;;8.76;100.00;98648.69;4885805;29;20063;-83
2022/02/09 08:29:47;;;;;;;3.88;2.97;;;;;;;9.00;100.00;98687.47;4907063;29;20525;-83
2022/02/09 08:34:58;;;;;;;5.45;3.13;;;;;;;8.97;100.00;98689.91;4901360;29;20056;-83
2022/02/09 08:37:25;;;;;;;4.32;2.80;;;;;;;9.00;100.00;98702.84;4899009;29;20053;-82
2022/02/09 08:39:54;;;;;;;4.30;2.90;;;;;;;9.08;100.00;98696.88;4899206;29;20056;-84
2022/02/09 08:42:21;;;;;;;4.85;3.20;;;;;;;9.00;100.00;98697.44;4882551;29;20089;-84
2022/02/09 08:44:48;;;;;;;4.40;2.97;;;;;;;9.03;100.00;98675.28;4897286;29;20048;-83
2022/02/09 08:47:34;;;;;;;5.00;3.15;;;;;;;8.94;100.00;98693.16;4898618;29;20084;-83
2022/02/09 08:50:03;;;;;;;4.90;3.47;;;;;;;9.04;100.00;98677.72;4896637;29;20493;-83
2022/02/09 08:52:30;;;;;;;4.90;3.55;;;;;;;9.04;100.00;98695.81;4884772;29;20128;-83
2022/02/09 08:54:58;;;;;;;7.18;3.50;;;;;;;9.03;100.00;98695.00;4898143;29;20498;-82
2022/02/09 08:57:27;;;;;;;4.78;3.47;;;;;;;8.87;100.00;98687.25;4876760;29;20052;-83
2022/02/09 08:59:53;;;;;;;5.18;3.05;;;;;;;9.05;100.00;98684.72;4894171;29;20052;-80
2022/02/09 09:02:23;;;;;;;4.47;3.58;;;;;;;9.23;100.00;98689.47;4894847;29;20060;-82
2022/02/09 09:04:56;;;;;;;5.43;3.63;;;;;;;9.11;100.00;98682.81;4896526;29;20316;-82
2022/02/09 09:07:28;;;;;;;5.00;3.40;;;;;;;9.25;100.00;98692.72;4898655;29;20048;-83
2022/02/09 09:59:28;;;;;;;5.00;3.13;;;;;;;9.45;100.00;98656.63;4901934;29;20068;-84
2022/02/09 10:04:32;;;;;;;8.73;2.78;;;;;;;9.73;100.00;98677.47;4901722;29;20084;-83
2022/02/09 10:35:13;;;;;;;4.78;3.13;;;;;;;9.41;100.00;98644.75;4902479;29;20052;-81
2022/02/09 10:37:44;;;;;;;4.47;3.10;;;;;;;9.52;100.00;98651.72;4900585;29;20501;-84
2022/02/09 10:40:46;;;;;;;5.60;3.30;;;;;;;9.44;100.00;98652.31;4897562;29;20550;-82
2022/02/09 10:43:23;;;;;;;6.00;3.25;;;;;;;9.60;100.00;98639.47;4864440;29;20057;-83
2022/02/09 10:45:50;;;;;;;5.70;3.30;;;;;;;9.62;100.00;98648.91;4879209;29;20049;-84
2022/02/09 10:48:35;;;;;;;5.00;3.22;;;;;;;9.82;100.00;98653.34;4881115;29;20049;-83
2022/02/09 10:51:24;;;;;;;4.93;3.20;;;;;;;9.66;100.00;98647.25;4881738;29;20049;-84
2022/02/09 10:54:06;;;;;;;6.18;3.42;;;;;;;9.97;100.00;98635.06;4878735;29;20581;-84
2022/02/09 10:56:36;;;;;;;6.88;3.40;;;;;;;9.86;100.00;98633.53;4891838;29;20077;-84
2022/02/09 10:59:05;;;;;;;5.35;2.90;;;;;;;9.94;100.00;98627.50;4897828;29;20115;-84
2022/02/09 11:01:33;;;;;;;4.85;3.38;;;;;;;9.68;100.00;98619.94;4898310;29;20482;-85
2022/02/09 11:03:59;;;;;;;5.00;3.53;;;;;;;10.09;100.00;98623.81;4897392;29;20060;-84
2022/02/09 11:06:34;;;;;;;6.82;3.38;;;;;;;9.94;100.00;98634.81;4897390;29;20064;-85
2022/02/09 11:09:07;;;;;;;3.80;2.75;;;;;;;9.67;100.00;98627.25;4883189;29;20080;-83
2022/02/09 11:11:39;;;;;;;3.53;2.63;;;;;;;9.86;100.00;98622.72;4898765;29;20059;-84
2022/02/09 11:14:17;;;;;;;6.93;3.17;;;;;;;9.72;100.00;98607.47;4883773;29;20085;-85
2022/02/09 11:16:52;;;;;;;6.93;3.22;;;;;;;9.72;100.00;98618.28;4901147;29;20077;-83
2022/02/09 11:19:19;;;;;;;5.38;2.85;;;;;;;9.68;100.00;98604.50;4885757;29;20124;-84
2022/02/09 11:22:12;;;;;;;5.82;3.13;;;;;;;9.69;100.00;98597.22;4895948;29;20071;-83
2022/02/09 11:24:45;;;;;;;4.43;2.97;;;;;;;9.95;100.00;98618.31;4894422;29;20569;-84
2022/02/09 11:27:25;;;;;;;3.90;2.90;;;;;;;10.01;100.00;98616.38;4897625;29;20233;-84
2022/02/09 11:30:34;;;;;;;;;;;;;;;9.83;100.00;98620.56;4878402;29;20053;-83
2022/02/09 11:33:21;;;;;;;5.68;3.47;;;;;;;10.06;100.00;98615.50;4871296;29;20027;-84
2022/02/09 11:36:15;;;;;;;6.13;2.90;;;;;;;10.18;100.00;98621.34;4879254;29;20052;-83
2022/02/09 11:38:49;;;;;;;5.40;2.92;;;;;;;10.54;100.00;98607.09;4878596;29;20049;-83
2022/02/09 11:41:20;;;;;;;4.70;2.90;;;;;;;10.10;100.00;98609.22;4879636;29;20073;-84
2022/02/09 11:43:58;;;;;;;4.55;2.92;;;;;;;10.23;100.00;98605.84;4896535;29;20060;-84
2022/02/09 11:49:53;;;;;;;4.88;3.00;;;;;;;9.98;100.00;98620.44;4897755;29;20116;-83
2022/02/09 11:52:32;;;;;;;3.92;2.78;;;;;;;9.93;100.00;98601.56;4898995;29;20053;-83
2022/02/09 12:11:19;;;;;;;6.15;2.78;;;;;;;9.91;100.00;98573.19;4883254;29;20645;-85
2022/02/09 12:13:58;;;;;;;4.57;2.55;;;;;;;10.07;100.00;98601.66;4882116;29;20056;-83
2022/02/09 12:17:13;;;;;;;3.67;2.55;;;;;;;9.88;100.00;98590.00;4882184;29;20513;-84
2022/02/09 12:19:46;;;;;;;4.70;2.70;;;;;;;9.85;100.00;98588.66;4885136;29;20085;-85
2022/02/09 12:22:18;;;;;;;5.82;2.60;;;;;;;9.94;100.00;98583.41;4881099;29;20415;-82
2022/02/09 12:24:44;;;;;;;5.22;2.95;;;;;;;9.92;100.00;98589.13;4902811;29;20439;-83
2022/02/09 12:27:13;;;;;;;5.30;3.00;;;;;;;9.89;100.00;98587.00;4886431;29;20374;-83
2022/02/09 12:29:48;;;;;;;4.90;2.90;;;;;;;9.86;100.00;98586.75;4901645;29;20529;-82
2022/02/09 12:32:15;;;;;;;5.20;3.13;;;;;;;9.74;100.00;98583.63;4902773;29;20072;-82
2022/02/09 12:35:02;;;;;;;4.60;2.80;;;;;;;9.82;100.00;98583.00;4907502;29;20308;-84
2022/02/09 12:37:35;;;;;;;5.65;2.95;;;;;;;9.96;100.00;98575.84;4906125;29;20048;-83
2022/02/09 12:40:17;;;;;;;3.95;2.88;;;;;;;9.85;100.00;98561.63;4916407;29;20067;-83
2022/02/09 12:42:49;;;;;;;4.97;2.65;;;;;;;10.03;100.00;98573.59;4917697;29;20071;-80
2022/02/09 12:45:19;;;;;;;5.28;3.03;;;;;;;9.80;100.00;98571.69;4914741;29;20052;-79
2022/02/09 12:48:01;;;;;;;4.35;2.88;;;;;;;9.88;100.00;98552.13;4915945;29;20043;-80
2022/02/09 12:50:33;;;;;;;5.55;2.95;;;;;;;9.88;100.00;98565.66;4894331;29;20064;-81
2022/02/09 12:53:02;;;;;;;5.30;2.92;;;;;;;9.98;100.00;98557.41;4894888;29;20040;-81
2022/02/09 12:55:31;;;;;;;5.47;3.13;;;;;;;10.13;100.00;98559.16;4893957;29;20045;-82
2022/02/09 12:58:05;;;;;;;4.32;2.88;;;;;;;10.34;100.00;98561.34;4909065;29;20063;-82
2022/02/09 13:00:42;;;;;;;;;;;;;;;10.08;100.00;98560.00;4885794;29;20421;-80
2022/02/09 13:03:20;;;;;;;5.95;3.17;;;;;;;10.20;100.00;98559.59;4883933;29;19987;-82
2022/02/09 13:06:00;;;;;;;4.15;2.95;;;;;;;10.18;100.00;98562.63;4900981;29;20056;-82
2022/02/09 13:08:31;;;;;;;5.80;3.58;;;;;;;9.96;100.00;98556.91;4901360;29;20076;-81
2022/02/09 13:13:41;;;;;;;6.22;3.10;;;;;;;10.18;100.00;98570.72;4905427;29;20056;-81
2022/02/09 13:16:19;;;;;;;6.22;3.75;;;;;;;10.27;100.00;98563.56;4907856;29;20060;-81
2022/02/09 13:22:33;;;;;;;5.32;3.22;;;;;;;9.97;100.00;98555.78;4907877;29;20056;-81
2022/02/09 14:15:03;;;;;;;;;;;;;;;10.42;100.00;98544.44;4920629;29;20464;-80
2022/02/09 14:56:05;;;;;;;5.60;3.07;;;;;;;10.19;100.00;98526.34;4903809;29;20324;-83
2022/02/09 14:58:34;;;;;;;5.60;3.17;;;;;;;10.00;100.00;98534.41;4886888;29;20920;-80
2022/02/09 15:01:09;;;;;;;5.32;3.28;;;;;;;10.13;100.00;98535.63;4897693;29;20120;-84
2022/02/09 15:16:29;;;;;;;6.72;3.45;;;;;;;10.13;100.00;98534.81;4900282;29;20053;-81
2022/02/09 15:21:59;;;;;;;5.63;3.08;;;;;;;10.07;100.00;98525.09;4903130;29;20053;-81
2022/02/09 15:24:39;;;;;;;3.85;2.90;;;;;;;9.98;100.00;98520.38;4901578;29;20072;-81
2022/02/09 15:27:11;;;;;;;5.90;3.13;;;;;;;10.01;100.00;98529.78;4902314;29;20049;-81
2022/02/09 15:29:37;;;;;;;5.43;2.90;;;;;;;10.02;100.00;98532.19;4900716;29;20522;-80
2022/02/09 15:32:10;;;;;;;6.40;3.20;;;;;;;10.07;100.00;98533.22;4901010;29;20104;-82
2022/02/09 15:34:49;;;;;;;4.00;2.80;;;;;;;9.99;100.00;98537.38;4900934;29;20071;-83
2022/02/09 15:37:28;;;;;;;3.67;2.70;;;;;;;10.03;100.00;98527.59;4900863;29;20063;-82
2022/02/09 15:39:57;;;;;;;5.20;3.15;;;;;;;9.89;100.00;98535.59;4901502;29;20048;-81
2022/02/09 15:56:31;;;;;;;;;;;;;;;;;;;;;
2022/02/09 16:23:32;;;;;;;5.40;3.17;;;;;;;9.59;100.00;98549.47;4895979;29;20139;-81
2022/02/09 16:46:56;;;;;;;8.30;3.60;;;;;;;9.93;100.00;98544.75;4896421;29;20079;-83
2022/02/09 16:49:40;;;;;;;8.25;3.90;;;;;;;9.98;100.00;98552.81;4892708;29;20064;-82
2022/02/09 16:53:13;;;;;;;6.60;3.38;;;;;;;9.85;100.00;98539.19;4883707;29;20112;-80
2022/02/09 17:19:37;;;;;;;7.55;2.75;;;;;;;9.93;100.00;98557.47;4904390;29;20062;-80
2022/02/09 17:22:04;;;;;;;5.75;2.70;;;;;;;10.01;100.00;98552.22;4898945;29;20060;-82
2022/02/09 17:24:31;;;;;;;6.18;2.90;;;;;;;9.92;100.00;98556.66;4896630;29;20112;-83
2022/02/09 17:26:58;;;;;;;5.13;3.00;;;;;;;9.81;100.00;98543.53;4888156;29;20055;-82
2022/02/09 17:29:43;;;;;;;6.20;3.03;;;;;;;9.91;100.00;98552.34;4887873;29;20060;-82
2022/02/09 17:32:18;;;;;;;4.10;2.60;;;;;;;10.14;100.00;98556.19;4886239;29;20091;-83
2022/02/09 17:35:09;;;;;;;8.63;3.00;;;;;;;9.94;100.00;98550.97;4873202;29;20056;-82
2022/02/09 17:54:44;;;;;;;4.85;2.65;;;;;;;9.98;100.00;98552.81;4896679;29;20723;-80
2022/02/09 17:56:55;;;;;;;4.95;2.97;;;;;;;10.08;100.00;98548.38;4899042;29;20056;-85
2022/02/09 17:59:24;;;;;;;6.47;3.55;;;;;;;10.01;100.00;98562.25;4887882;29;20082;-83
2022/02/09 18:01:51;;;;;;;7.10;3.25;;;;;;;10.10;100.00;98563.22;4896090;29;20111;-81
2022/02/09 18:04:21;;;;;;;4.40;2.95;;;;;;;9.89;100.00;98524.78;4896222;29;20503;-82
2022/02/09 18:06:57;;;;;;;5.20;3.30;;;;;;;9.90;100.00;98545.34;4896860;29;20063;-80
2022/02/09 18:09:32;;;;;;;;;;;;;;;9.97;100.00;98556.59;4895015;29;20048;-80
2022/02/09 18:12:53;;;;;;;5.85;3.20;;;;;;;9.97;100.00;98550.38;4891033;29;19975;-80
2022/02/09 18:15:07;;;;;;;5.47;2.90;;;;;;;9.87;100.00;98540.50;4881942;29;20068;-80
2022/02/09 18:31:23;;;;;;;4.93;3.07;;;;;;;9.90;100.00;98548.03;4895108;29;20064;-82
2022/02/09 18:39:56;;;;;;;5.60;3.03;;;;;;;10.01;100.00;98544.09;4895860;29;20139;-82
2022/02/09 18:45:06;;;;;;;8.70;3.50;;;;;;;10.08;100.00;98524.84;4896529;29;20060;-80
2022/02/09 19:03:51;;;;;;;5.63;3.40;;;;;;;10.01;100.00;98527.88;4894024;29;20052;-79
2022/02/09 19:06:22;;;;;;;5.55;3.28;;;;;;;9.94;100.00;98527.44;4894135;29;20124;-81
2022/02/09 19:15:38;;;;;;;5.88;3.38;;;;;;;9.91;100.00;98522.59;4891033;29;20056;-82
2022/02/09 19:30:56;;;;;;;6.57;3.85;;;;;;;9.87;100.00;98521.56;4908950;29;20056;-80
2022/02/09 19:46:55;;;;;;;6.50;3.70;;;;;;;9.84;100.00;98524.84;4897426;29;20048;-81
2022/02/09 19:52:16;;;;;;;5.70;3.75;;;;;;;9.79;100.00;98534.91;4895872;29;20057;-83
2022/02/09 19:57:35;;;;;;;6.07;3.55;;;;;;;9.90;100.00;98539.94;4899361;29;20403;-80
2022/02/09 20:00:05;;;;;;;4.78;3.40;;;;;;;9.83;100.00;98531.34;4902144;29;20080;-82
2022/02/09 20:02:33;;;;;;;5.95;3.30;;;;;;;9.90;100.00;98525.59;4901648;29;20186;-82
2022/02/09 20:05:02;;;;;;;5.63;3.58;;;;;;;9.86;100.00;98528.06;4899737;29;20053;-81
2022/02/09 20:07:32;;;;;;;4.63;3.10;;;;;;;9.76;100.00;98516.53;4900731;29;20091;-82
2022/02/09 20:09:58;;;;;;;6.35;3.60;;;;;;;9.72;100.00;98526.34;4900311;29;20073;-81
2022/02/09 20:12:25;;;;;;;4.90;3.55;;;;;;;9.73;100.00;98520.63;4885686;29;20085;-84
2022/02/09 20:14:52;;;;;;;6.03;3.60;;;;;;;9.84;100.00;98518.63;4886502;29;20056;-83
2022/02/09 20:17:19;;;;;;;6.53;3.40;;;;;;;9.92;100.00;98515.28;4885993;29;20052;-82
2022/02/09 20:19:54;;;;;;;5.97;3.70;;;;;;;9.77;100.00;98512.75;4907290;29;20052;-82
2022/02/09 20:22:20;;;;;;;10.55;3.85;;;;;;;9.81;100.00;98516.50;4893595;29;20052;-82
2022/02/09 20:24:48;;;;;;;5.40;3.55;;;;;;;9.89;100.00;98527.50;4889455;29;20112;-83
2022/02/09 20:27:19;;;;;;;7.10;3.67;;;;;;;9.72;100.00;98496.59;4910491;29;20036;-84
2022/02/09 20:29:46;;;;;;;5.65;3.45;;;;;;;9.93;100.00;98516.91;4903152;29;20113;-83
2022/02/09 20:32:19;;;;;;;8.40;4.38;;;;;;;9.74;100.00;98527.66;4899249;29;20056;-82
2022/02/09 20:34:52;;;;;;;6.78;3.55;;;;;;;9.74;100.00;98514.16;4898407;29;20057;-83
2022/02/09 20:37:20;;;;;;;6.80;3.60;;;;;;;9.80;100.00;98523.81;4900605;29;20056;-83
2022/02/09 20:39:58;;;;;;;5.00;3.22;;;;;;;9.75;100.00;98514.97;4884750;29;20057;-81
2022/02/09 20:42:26;;;;;;;5.43;3.58;;;;;;;9.84;100.00;98508.63;4901354;29;20060;-81
2022/02/09 20:45:11;;;;;;;6.05;3.65;;;;;;;9.80;100.00;98498.66;4901403;29;20068;-81
2022/02/09 20:47:42;;;;;;;7.72;3.45;;;;;;;9.78;100.00;98508.97;4902219;29;20045;-80
2022/02/09 20:50:09;;;;;;;6.35;3.53;;;;;;;9.90;100.00;98501.25;4903858;29;20499;-81
2022/02/09 20:52:36;;;;;;;6.60;3.45;;;;;;;9.86;100.00;98501.00;4904102;29;20060;-80
2022/02/09 20:55:04;;;;;;;7.00;3.30;;;;;;;9.89;100.00;98521.25;4908872;29;20501;-83
2022/02/09 20:57:32;;;;;;;6.53;3.60;;;;;;;9.84;100.00;98511.31;4905634;29;20454;-84
2022/02/09 21:00:08;;;;;;;5.93;3.53;;;;;;;9.88;100.00;98520.47;4886609;29;20060;-83
2022/02/09 21:13:18;;;;;;;7.18;3.58;;;;;;;9.77;100.00;98502.75;4911498;29;20118;-78
2022/02/09 21:21:05;;;;;;;6.65;4.30;;;;;;;9.83;100.00;98493.47;4910249;29;20053;-78
2022/02/09 21:26:39;;;;;;;7.35;4.13;;;;;;;9.92;100.00;98493.66;4910647;29;20080;-84
2022/02/09 21:32:14;;;;;;;7.65;4.10;;;;;;;9.97;100.00;98488.16;4903626;29;20398;-84
2022/02/09 21:45:42;;;;;;;8.48;3.10;;;;;;;9.94;100.00;98484.16;4908125;29;20080;-81
2022/02/09 21:54:32;;;;;;;5.30;3.00;;;;;;;10.04;100.00;98464.28;4901423;29;20060;-83
2022/02/09 21:56:41;;;;;;;5.85;2.85;;;;;;;9.95;100.00;98466.84;4897636;29;20120;-82
2022/02/09 22:06:06;;;;;;;5.53;2.80;;;;;;;10.01;100.00;98462.94;4901826;29;20048;-80
2022/02/09 22:21:54;;;;;;;4.73;3.10;;;;;;;10.37;100.00;98451.69;4901800;29;20095;-82
2022/02/09 22:29:34;;;;;;;6.75;3.45;;;;;;;10.16;100.00;98443.06;4911014;29;20061;-82
2022/02/09 22:32:28;;;;;;;6.95;3.50;;;;;;;10.09;100.00;98431.72;4911712;29;20103;-80
2022/02/09 22:56:07;;;;;;;5.32;3.13;;;;;;;10.04;100.00;98424.50;4905768;29;20048;-80
2022/02/09 22:58:33;;;;;;;5.45;2.92;;;;;;;10.14;100.00;98423.59;4889112;29;20143;-83
2022/02/09 23:06:42;;;;;;;5.05;2.63;;;;;;;9.98;100.00;98416.75;4882465;29;20129;-80
2022/02/09 23:27:50;;;;;;;6.13;2.70;;;;;;;10.07;100.00;98406.88;4898896;29;20462;-83
